sensor_id;sensor_type;location;lat;lon;timestamp;P1;durP1;ratioP1;P2;durP2;ratioP2
5871;SDS011;2962;51.312;7.378;2023-04-01T00:00:48;3.50;;;0.73;;
5871;SDS011;2962;51.312;7.378;2023-04-01T00:03:13;1.50;;;0.50;;
5871;SDS011;2962;51.312;7.378;2023-04-01T00:05:39;2.70;;;0.60;;
5871;SDS011;2962;51.312;7.378;2023-04-01T00:08:04;1.73;;;0.60;;
5871;SDS011;2962;51.312;7.378;2023-04-01T00:10:29;3.80;;;0.90;;
5871;SDS011;2962;51.312;7.378;2023-04-01T00:12:55;0.93;;;0.60;;
5871;SDS011;2962;51.312;7.378;2023-04-01T00:15:20;2.53;;;1.30;;
5871;SDS011;2962;51.312;7.378;2023-04-01T00:17:45;0.80;;;0.80;;
5871;SDS011;2962;51.312;7.378;2023-04-01T00:20:11;5.07;;;0.83;;
5871;SDS011;2962;51.312;7.378;2023-04-01T00:22:37;1.63;;;0.60;;
5871;SDS011;2962;51.312;7.378;2023-04-01T00:25:03;1.87;;;0.57;;
5871;SDS011;2962;51.312;7.378;2023-04-01T00:27:29;1.50;;;0.53;;
5871;SDS011;2962;51.312;7.378;2023-04-01T00:29:54;0.60;;;0.60;;
5871;SDS011;2962;51.312;7.378;2023-04-01T00:32:20;1.13;;;0.60;;
5871;SDS011;2962;51.312;7.378;2023-04-01T00:34:45;0.70;;;0.70;;
5871;SDS011;2962;51.312;7.378;2023-04-01T00:37:10;1.73;;;0.50;;
5871;SDS011;2962;51.312;7.378;2023-04-01T00:39:36;0.93;;;0.50;;
5871;SDS011;2962;51.312;7.378;2023-04-01T00:42:02;0.60;;;0.60;;
5871;SDS011;2962;51.312;7.378;2023-04-01T00:44:30;1.10;;;0.67;;
5871;SDS011;2962;51.312;7.378;2023-04-01T00:46:58;2.73;;;0.50;;
5871;SDS011;2962;51.312;7.378;2023-04-01T00:49:28;3.00;;;1.07;;
5871;SDS011;2962;51.312;7.378;2023-04-01T00:51:57;0.40;;;0.40;;
5871;SDS011;2962;51.312;7.378;2023-04-01T00:54:25;1.43;;;0.50;;
5871;SDS011;2962;51.312;7.378;2023-04-01T00:56:59;5.20;;;0.60;;
5871;SDS011;2962;51.312;7.378;2023-04-01T00:59:32;1.13;;;0.60;;
5871;SDS011;2962;51.312;7.378;2023-04-01T01:02:02;0.87;;;0.60;;
5871;SDS011;2962;51.312;7.378;2023-04-01T01:04:29;0.70;;;0.70;;
5871;SDS011;2962;51.312;7.378;2023-04-01T01:07:03;2.00;;;0.80;;
5871;SDS011;2962;51.312;7.378;2023-04-01T01:12:18;0.60;;;0.50;;
5871;SDS011;2962;51.312;7.378;2023-04-01T01:15:07;0.60;;;0.50;;
5871;SDS011;2962;51.312;7.378;2023-04-01T01:20:48;2.47;;;0.53;;
5871;SDS011;2962;51.312;7.378;2023-04-01T01:31:50;6.73;;;0.80;;
5871;SDS011;2962;51.312;7.378;2023-04-01T01:37:10;1.90;;;0.43;;
5871;SDS011;2962;51.312;7.378;2023-04-01T01:39:39;2.00;;;0.60;;
5871;SDS011;2962;51.312;7.378;2023-04-01T01:42:08;2.63;;;0.90;;
5871;SDS011;2962;51.312;7.378;2023-04-01T01:44:38;2.73;;;0.43;;
5871;SDS011;2962;51.312;7.378;2023-04-01T01:47:06;3.93;;;0.67;;
5871;SDS011;2962;51.312;7.378;2023-04-01T01:49:32;2.83;;;0.70;;
5871;SDS011;2962;51.312;7.378;2023-04-01T01:52:00;1.70;;;0.60;;
5871;SDS011;2962;51.312;7.378;2023-04-01T01:54:25;1.50;;;0.60;;
5871;SDS011;2962;51.312;7.378;2023-04-01T01:56:51;0.30;;;0.30;;
5871;SDS011;2962;51.312;7.378;2023-04-01T01:59:25;0.93;;;0.40;;
5871;SDS011;2962;51.312;7.378;2023-04-01T02:01:52;2.30;;;0.80;;
5871;SDS011;2962;51.312;7.378;2023-04-01T02:04:20;1.50;;;0.50;;
5871;SDS011;2962;51.312;7.378;2023-04-01T02:06:54;0.80;;;0.80;;
5871;SDS011;2962;51.312;7.378;2023-04-01T02:09:25;0.83;;;0.40;;
5871;SDS011;2962;51.312;7.378;2023-04-01T02:11:52;0.80;;;0.50;;
5871;SDS011;2962;51.312;7.378;2023-04-01T02:16:55;2.73;;;0.60;;
5871;SDS011;2962;51.312;7.378;2023-04-01T02:19:34;0.30;;;0.30;;
5871;SDS011;2962;51.312;7.378;2023-04-01T02:22:03;0.30;;;0.30;;
5871;SDS011;2962;51.312;7.378;2023-04-01T02:24:33;0.97;;;0.50;;
5871;SDS011;2962;51.312;7.378;2023-04-01T02:27:01;0.40;;;0.40;;
5871;SDS011;2962;51.312;7.378;2023-04-01T02:29:27;1.50;;;0.30;;
5871;SDS011;2962;51.312;7.378;2023-04-01T02:31:52;0.30;;;0.30;;
5871;SDS011;2962;51.312;7.378;2023-04-01T02:34:19;0.40;;;0.40;;
5871;SDS011;2962;51.312;7.378;2023-04-01T02:36:48;1.07;;;0.30;;
5871;SDS011;2962;51.312;7.378;2023-04-01T02:39:14;0.20;;;0.20;;
5871;SDS011;2962;51.312;7.378;2023-04-01T02:41:41;0.37;;;0.37;;
5871;SDS011;2962;51.312;7.378;2023-04-01T02:44:08;0.40;;;0.40;;
5871;SDS011;2962;51.312;7.378;2023-04-01T02:46:35;0.80;;;0.30;;
5871;SDS011;2962;51.312;7.378;2023-04-01T02:49:00;0.60;;;0.60;;
5871;SDS011;2962;51.312;7.378;2023-04-01T02:51:26;0.53;;;0.30;;
5871;SDS011;2962;51.312;7.378;2023-04-01T02:53:51;0.30;;;0.30;;
5871;SDS011;2962;51.312;7.378;2023-04-01T02:56:17;0.33;;;0.33;;
5871;SDS011;2962;51.312;7.378;2023-04-01T02:58:42;1.30;;;0.30;;
5871;SDS011;2962;51.312;7.378;2023-04-01T03:01:07;0.30;;;0.30;;
5871;SDS011;2962;51.312;7.378;2023-04-01T03:03:33;0.37;;;0.30;;
5871;SDS011;2962;51.312;7.378;2023-04-01T03:06:01;1.70;;;0.20;;
5871;SDS011;2962;51.312;7.378;2023-04-01T03:08:30;0.30;;;0.30;;
5871;SDS011;2962;51.312;7.378;2023-04-01T03:10:55;0.50;;;0.30;;
5871;SDS011;2962;51.312;7.378;2023-04-01T03:13:20;0.30;;;0.30;;
5871;SDS011;2962;51.312;7.378;2023-04-01T03:15:45;0.30;;;0.30;;
5871;SDS011;2962;51.312;7.378;2023-04-01T03:18:11;0.40;;;0.40;;
5871;SDS011;2962;51.312;7.378;2023-04-01T03:20:36;0.30;;;0.30;;
5871;SDS011;2962;51.312;7.378;2023-04-01T03:23:01;2.57;;;0.30;;
5871;SDS011;2962;51.312;7.378;2023-04-01T03:25:26;1.23;;;0.40;;
5871;SDS011;2962;51.312;7.378;2023-04-01T03:27:53;0.30;;;0.30;;
5871;SDS011;2962;51.312;7.378;2023-04-01T03:30:18;0.30;;;0.30;;
5871;SDS011;2962;51.312;7.378;2023-04-01T03:32:44;0.93;;;0.30;;
5871;SDS011;2962;51.312;7.378;2023-04-01T03:35:09;0.30;;;0.30;;
5871;SDS011;2962;51.312;7.378;2023-04-01T03:37:35;0.37;;;0.37;;
5871;SDS011;2962;51.312;7.378;2023-04-01T03:40:00;0.30;;;0.30;;
5871;SDS011;2962;51.312;7.378;2023-04-01T03:42:26;1.70;;;0.40;;
5871;SDS011;2962;51.312;7.378;2023-04-01T03:44:51;0.30;;;0.30;;
5871;SDS011;2962;51.312;7.378;2023-04-01T03:47:16;0.40;;;0.40;;
5871;SDS011;2962;51.312;7.378;2023-04-01T03:49:42;0.50;;;0.50;;
5871;SDS011;2962;51.312;7.378;2023-04-01T03:52:08;1.40;;;0.50;;
5871;SDS011;2962;51.312;7.378;2023-04-01T03:54:35;0.60;;;0.50;;
5871;SDS011;2962;51.312;7.378;2023-04-01T03:57:01;0.67;;;0.40;;
5871;SDS011;2962;51.312;7.378;2023-04-01T03:59:26;0.50;;;0.50;;
5871;SDS011;2962;51.312;7.378;2023-04-01T04:01:51;0.70;;;0.70;;
5871;SDS011;2962;51.312;7.378;2023-04-01T04:04:17;0.50;;;0.50;;
5871;SDS011;2962;51.312;7.378;2023-04-01T04:06:42;0.67;;;0.67;;
5871;SDS011;2962;51.312;7.378;2023-04-01T04:09:07;0.70;;;0.70;;
5871;SDS011;2962;51.312;7.378;2023-04-01T04:11:33;0.80;;;0.80;;
5871;SDS011;2962;51.312;7.378;2023-04-01T04:13:58;1.60;;;1.20;;
5871;SDS011;2962;51.312;7.378;2023-04-01T04:16:24;0.60;;;0.60;;
5871;SDS011;2962;51.312;7.378;2023-04-01T04:18:49;0.97;;;0.97;;
5871;SDS011;2962;51.312;7.378;2023-04-01T04:21:16;1.30;;;1.20;;
5871;SDS011;2962;51.312;7.378;2023-04-01T04:23:41;1.43;;;1.20;;
5871;SDS011;2962;51.312;7.378;2023-04-01T04:26:08;1.30;;;1.20;;
5871;SDS011;2962;51.312;7.378;2023-04-01T04:28:38;1.60;;;1.10;;
5871;SDS011;2962;51.312;7.378;2023-04-01T04:31:04;1.63;;;1.53;;
5871;SDS011;2962;51.312;7.378;2023-04-01T04:33:30;0.90;;;0.90;;
5871;SDS011;2962;51.312;7.378;2023-04-01T04:35:56;0.80;;;0.80;;
5871;SDS011;2962;51.312;7.378;2023-04-01T04:38:22;1.43;;;1.43;;
5871;SDS011;2962;51.312;7.378;2023-04-01T04:40:47;1.20;;;1.20;;
5871;SDS011;2962;51.312;7.378;2023-04-01T04:43:13;1.60;;;1.50;;
5871;SDS011;2962;51.312;7.378;2023-04-01T04:45:40;1.03;;;1.03;;
5871;SDS011;2962;51.312;7.378;2023-04-01T04:48:07;1.53;;;1.53;;
5871;SDS011;2962;51.312;7.378;2023-04-01T04:50:33;1.23;;;1.23;;
5871;SDS011;2962;51.312;7.378;2023-04-01T04:52:59;1.23;;;1.23;;
5871;SDS011;2962;51.312;7.378;2023-04-01T04:55:24;5.10;;;1.53;;
5871;SDS011;2962;51.312;7.378;2023-04-01T04:57:50;1.60;;;1.57;;
5871;SDS011;2962;51.312;7.378;2023-04-01T05:00:15;2.00;;;2.00;;
5871;SDS011;2962;51.312;7.378;2023-04-01T05:02:41;1.80;;;1.80;;
5871;SDS011;2962;51.312;7.378;2023-04-01T05:05:06;1.33;;;1.33;;
5871;SDS011;2962;51.312;7.378;2023-04-01T05:07:32;2.13;;;2.13;;
5871;SDS011;2962;51.312;7.378;2023-04-01T05:09:58;1.80;;;1.80;;
5871;SDS011;2962;51.312;7.378;2023-04-01T05:12:24;1.90;;;1.90;;
5871;SDS011;2962;51.312;7.378;2023-04-01T05:14:49;1.37;;;1.37;;
5871;SDS011;2962;51.312;7.378;2023-04-01T05:17:15;1.47;;;1.47;;
5871;SDS011;2962;51.312;7.378;2023-04-01T05:19:40;1.03;;;1.03;;
5871;SDS011;2962;51.312;7.378;2023-04-01T05:22:05;1.37;;;1.37;;
5871;SDS011;2962;51.312;7.378;2023-04-01T05:24:31;1.70;;;1.70;;
5871;SDS011;2962;51.312;7.378;2023-04-01T05:26:57;0.80;;;0.80;;
5871;SDS011;2962;51.312;7.378;2023-04-01T05:29:23;1.67;;;1.67;;
5871;SDS011;2962;51.312;7.378;2023-04-01T05:31:49;1.30;;;1.30;;
5871;SDS011;2962;51.312;7.378;2023-04-01T05:34:14;1.20;;;1.20;;
5871;SDS011;2962;51.312;7.378;2023-04-01T05:36:40;1.90;;;1.70;;
5871;SDS011;2962;51.312;7.378;2023-04-01T05:39:06;1.43;;;1.43;;
5871;SDS011;2962;51.312;7.378;2023-04-01T05:41:33;1.00;;;1.00;;
5871;SDS011;2962;51.312;7.378;2023-04-01T05:44:00;1.60;;;1.60;;
5871;SDS011;2962;51.312;7.378;2023-04-01T05:46:25;1.47;;;1.47;;
5871;SDS011;2962;51.312;7.378;2023-04-01T05:48:50;1.30;;;1.30;;
5871;SDS011;2962;51.312;7.378;2023-04-01T05:51:15;1.30;;;1.30;;
5871;SDS011;2962;51.312;7.378;2023-04-01T05:53:41;1.53;;;1.53;;
5871;SDS011;2962;51.312;7.378;2023-04-01T05:56:07;1.50;;;1.40;;
5871;SDS011;2962;51.312;7.378;2023-04-01T05:58:34;3.30;;;1.50;;
5871;SDS011;2962;51.312;7.378;2023-04-01T06:01:00;1.27;;;1.27;;
5871;SDS011;2962;51.312;7.378;2023-04-01T06:03:30;1.20;;;1.20;;
5871;SDS011;2962;51.312;7.378;2023-04-01T06:05:55;1.17;;;1.17;;
5871;SDS011;2962;51.312;7.378;2023-04-01T06:08:21;0.90;;;0.90;;
5871;SDS011;2962;51.312;7.378;2023-04-01T06:16:29;1.60;;;1.60;;
5871;SDS011;2962;51.312;7.378;2023-04-01T06:25:00;2.90;;;2.80;;
5871;SDS011;2962;51.312;7.378;2023-04-01T06:30:47;1.10;;;1.10;;
5871;SDS011;2962;51.312;7.378;2023-04-01T06:39:22;1.10;;;1.10;;
5871;SDS011;2962;51.312;7.378;2023-04-01T06:41:58;1.27;;;1.27;;
5871;SDS011;2962;51.312;7.378;2023-04-01T06:44:43;1.30;;;1.30;;
5871;SDS011;2962;51.312;7.378;2023-04-01T06:48:06;0.93;;;0.93;;
5871;SDS011;2962;51.312;7.378;2023-04-01T06:53:06;0.80;;;0.80;;
5871;SDS011;2962;51.312;7.378;2023-04-01T06:55:43;1.00;;;1.00;;
5871;SDS011;2962;51.312;7.378;2023-04-01T06:58:24;1.20;;;1.20;;
5871;SDS011;2962;51.312;7.378;2023-04-01T07:00:53;1.03;;;1.03;;
5871;SDS011;2962;51.312;7.378;2023-04-01T07:06:20;1.13;;;0.70;;
5871;SDS011;2962;51.312;7.378;2023-04-01T07:08:51;1.20;;;1.20;;
5871;SDS011;2962;51.312;7.378;2023-04-01T07:11:28;1.37;;;1.27;;
5871;SDS011;2962;51.312;7.378;2023-04-01T07:14:01;1.20;;;1.20;;
5871;SDS011;2962;51.312;7.378;2023-04-01T07:16:38;1.10;;;1.10;;
5871;SDS011;2962;51.312;7.378;2023-04-01T07:21:52;1.30;;;1.30;;
5871;SDS011;2962;51.312;7.378;2023-04-01T07:24:23;0.80;;;0.80;;
5871;SDS011;2962;51.312;7.378;2023-04-01T07:26:55;1.27;;;0.90;;
5871;SDS011;2962;51.312;7.378;2023-04-01T07:29:22;0.70;;;0.70;;
5871;SDS011;2962;51.312;7.378;2023-04-01T07:34:38;1.03;;;1.03;;
5871;SDS011;2962;51.312;7.378;2023-04-01T07:37:26;0.67;;;0.67;;
5871;SDS011;2962;51.312;7.378;2023-04-01T07:50:26;0.70;;;0.70;;
5871;SDS011;2962;51.312;7.378;2023-04-01T07:55:30;1.10;;;1.10;;
5871;SDS011;2962;51.312;7.378;2023-04-01T07:58:22;1.00;;;1.00;;
5871;SDS011;2962;51.312;7.378;2023-04-01T08:01:13;0.67;;;0.67;;
5871;SDS011;2962;51.312;7.378;2023-04-01T08:06:47;0.90;;;0.90;;
5871;SDS011;2962;51.312;7.378;2023-04-01T08:14:52;0.70;;;0.70;;
5871;SDS011;2962;51.312;7.378;2023-04-01T08:22:40;0.80;;;0.80;;
5871;SDS011;2962;51.312;7.378;2023-04-01T08:25:10;1.13;;;0.90;;
5871;SDS011;2962;51.312;7.378;2023-04-01T08:27:41;0.80;;;0.80;;
5871;SDS011;2962;51.312;7.378;2023-04-01T08:30:18;2.80;;;0.80;;
5871;SDS011;2962;51.312;7.378;2023-04-01T08:32:53;0.60;;;0.60;;
5871;SDS011;2962;51.312;7.378;2023-04-01T08:35:29;1.07;;;1.07;;
5871;SDS011;2962;51.312;7.378;2023-04-01T08:38:05;0.63;;;0.63;;
5871;SDS011;2962;51.312;7.378;2023-04-01T08:40:41;1.07;;;1.07;;
5871;SDS011;2962;51.312;7.378;2023-04-01T08:49:06;1.43;;;1.27;;
5871;SDS011;2962;51.312;7.378;2023-04-01T08:52:01;1.60;;;1.50;;
5871;SDS011;2962;51.312;7.378;2023-04-01T08:57:34;1.80;;;1.80;;
5871;SDS011;2962;51.312;7.378;2023-04-01T09:10:53;1.23;;;1.23;;
5871;SDS011;2962;51.312;7.378;2023-04-01T09:21:58;0.93;;;0.93;;
5871;SDS011;2962;51.312;7.378;2023-04-01T09:27:44;5.50;;;1.10;;
5871;SDS011;2962;51.312;7.378;2023-04-01T09:30:24;126.90;;;6.03;;
5871;SDS011;2962;51.312;7.378;2023-04-01T09:35:47;3.43;;;1.20;;
5871;SDS011;2962;51.312;7.378;2023-04-01T09:41:31;46.80;;;3.90;;
5871;SDS011;2962;51.312;7.378;2023-04-01T09:55:19;52.50;;;5.47;;
5871;SDS011;2962;51.312;7.378;2023-04-01T09:58:07;3.23;;;3.03;;
5871;SDS011;2962;51.312;7.378;2023-04-01T10:09:04;4.47;;;4.10;;
5871;SDS011;2962;51.312;7.378;2023-04-01T10:11:54;4.93;;;4.47;;
5871;SDS011;2962;51.312;7.378;2023-04-01T10:37:23;7.30;;;6.73;;
5871;SDS011;2962;51.312;7.378;2023-04-01T10:48:41;5.60;;;5.23;;
5871;SDS011;2962;51.312;7.378;2023-04-01T10:53:38;3.50;;;3.33;;
5871;SDS011;2962;51.312;7.378;2023-04-01T11:02:41;6.97;;;6.00;;
5871;SDS011;2962;51.312;7.378;2023-04-01T11:05:51;7.20;;;5.30;;
5871;SDS011;2962;51.312;7.378;2023-04-01T11:11:39;5.20;;;4.90;;
5871;SDS011;2962;51.312;7.378;2023-04-01T11:28:10;2.07;;;1.97;;
5871;SDS011;2962;51.312;7.378;2023-04-01T11:31:00;2.47;;;2.37;;
5871;SDS011;2962;51.312;7.378;2023-04-01T11:33:38;2.60;;;2.60;;
5871;SDS011;2962;51.312;7.378;2023-04-01T11:36:15;1.70;;;1.70;;
5871;SDS011;2962;51.312;7.378;2023-04-01T11:39:10;2.50;;;2.40;;
5871;SDS011;2962;51.312;7.378;2023-04-01T11:44:34;2.67;;;2.67;;
5871;SDS011;2962;51.312;7.378;2023-04-01T11:47:29;1.80;;;1.80;;
5871;SDS011;2962;51.312;7.378;2023-04-01T11:50:18;2.37;;;2.27;;
5871;SDS011;2962;51.312;7.378;2023-04-01T12:01:14;2.00;;;2.00;;
5871;SDS011;2962;51.312;7.378;2023-04-01T12:07:00;1.73;;;1.73;;
5871;SDS011;2962;51.312;7.378;2023-04-01T12:09:48;2.23;;;2.23;;
5871;SDS011;2962;51.312;7.378;2023-04-01T12:12:39;1.93;;;1.93;;
5871;SDS011;2962;51.312;7.378;2023-04-01T12:20:43;2.53;;;2.50;;
5871;SDS011;2962;51.312;7.378;2023-04-01T12:32:45;3.70;;;3.60;;
5871;SDS011;2962;51.312;7.378;2023-04-01T12:34:57;3.83;;;3.63;;
5871;SDS011;2962;51.312;7.378;2023-04-01T12:45:32;4.60;;;4.30;;
5871;SDS011;2962;51.312;7.378;2023-04-01T12:53:42;4.00;;;3.80;;
5871;SDS011;2962;51.312;7.378;2023-04-01T12:56:34;4.97;;;4.67;;
5871;SDS011;2962;51.312;7.378;2023-04-01T13:07:29;4.30;;;4.10;;
5871;SDS011;2962;51.312;7.378;2023-04-01T13:15:23;7.87;;;5.00;;
5871;SDS011;2962;51.312;7.378;2023-04-01T13:20:45;5.87;;;5.27;;
5871;SDS011;2962;51.312;7.378;2023-04-01T13:23:37;6.67;;;5.80;;
5871;SDS011;2962;51.312;7.378;2023-04-01T13:29:41;7.77;;;7.03;;
5871;SDS011;2962;51.312;7.378;2023-04-01T13:32:34;6.77;;;5.97;;
5871;SDS011;2962;51.312;7.378;2023-04-01T13:35:23;10.30;;;8.07;;
5871;SDS011;2962;51.312;7.378;2023-04-01T13:43:55;7.33;;;6.67;;
5871;SDS011;2962;51.312;7.378;2023-04-01T13:49:48;5.37;;;4.93;;
5871;SDS011;2962;51.312;7.378;2023-04-01T14:01:05;8.07;;;6.90;;
5871;SDS011;2962;51.312;7.378;2023-04-01T14:03:54;8.33;;;7.47;;
5871;SDS011;2962;51.312;7.378;2023-04-01T14:07:31;6.73;;;6.20;;
5871;SDS011;2962;51.312;7.378;2023-04-01T14:09:40;7.40;;;6.70;;
5871;SDS011;2962;51.312;7.378;2023-04-01T14:20:33;6.57;;;5.97;;
5871;SDS011;2962;51.312;7.378;2023-04-01T14:28:48;7.70;;;6.90;;
5871;SDS011;2962;51.312;7.378;2023-04-01T14:31:25;9.03;;;7.10;;
5871;SDS011;2962;51.312;7.378;2023-04-01T14:34:00;18.40;;;7.57;;
5871;SDS011;2962;51.312;7.378;2023-04-01T14:44:50;5.40;;;4.90;;
5871;SDS011;2962;51.312;7.378;2023-04-01T14:47:47;3.70;;;3.50;;
5871;SDS011;2962;51.312;7.378;2023-04-01T14:50:23;4.20;;;4.00;;
5871;SDS011;2962;51.312;7.378;2023-04-01T14:55:44;5.93;;;5.30;;
5871;SDS011;2962;51.312;7.378;2023-04-01T14:58:16;5.93;;;5.33;;
5871;SDS011;2962;51.312;7.378;2023-04-01T15:03:50;6.40;;;5.90;;
5871;SDS011;2962;51.312;7.378;2023-04-01T15:29:13;6.50;;;5.87;;
5871;SDS011;2962;51.312;7.378;2023-04-01T15:51:48;6.63;;;6.07;;
5871;SDS011;2962;51.312;7.378;2023-04-01T16:05:49;5.77;;;5.23;;
5871;SDS011;2962;51.312;7.378;2023-04-01T16:08:21;4.07;;;3.67;;
5871;SDS011;2962;51.312;7.378;2023-04-01T16:11:15;5.93;;;5.33;;
5871;SDS011;2962;51.312;7.378;2023-04-01T16:19:51;4.43;;;4.23;;
5871;SDS011;2962;51.312;7.378;2023-04-01T16:30:50;2.40;;;2.30;;
5871;SDS011;2962;51.312;7.378;2023-04-01T16:33:35;4.20;;;4.00;;
5871;SDS011;2962;51.312;7.378;2023-04-01T16:36:13;3.80;;;3.60;;
5871;SDS011;2962;51.312;7.378;2023-04-01T16:41:36;5.10;;;4.70;;
5871;SDS011;2962;51.312;7.378;2023-04-01T16:44:19;3.53;;;3.40;;
5871;SDS011;2962;51.312;7.378;2023-04-01T16:46:49;5.00;;;4.60;;
5871;SDS011;2962;51.312;7.378;2023-04-01T16:49:25;3.80;;;3.70;;
5871;SDS011;2962;51.312;7.378;2023-04-01T16:52:14;3.50;;;3.40;;
5871;SDS011;2962;51.312;7.378;2023-04-01T16:57:19;5.97;;;4.77;;
5871;SDS011;2962;51.312;7.378;2023-04-01T17:00:10;4.43;;;4.23;;
5871;SDS011;2962;51.312;7.378;2023-04-01T17:05:19;4.83;;;4.53;;
5871;SDS011;2962;51.312;7.378;2023-04-01T17:10:50;4.10;;;3.90;;
5871;SDS011;2962;51.312;7.378;2023-04-01T17:26:46;5.10;;;4.80;;
5871;SDS011;2962;51.312;7.378;2023-04-01T17:29:23;5.67;;;5.37;;
5871;SDS011;2962;51.312;7.378;2023-04-01T17:32:11;6.40;;;5.83;;
5871;SDS011;2962;51.312;7.378;2023-04-01T17:37:27;5.83;;;5.33;;
5871;SDS011;2962;51.312;7.378;2023-04-01T17:45:44;6.37;;;5.87;;
5871;SDS011;2962;51.312;7.378;2023-04-01T17:50:59;7.40;;;6.80;;
5871;SDS011;2962;51.312;7.378;2023-04-01T18:07:16;9.57;;;8.27;;
5871;SDS011;2962;51.312;7.378;2023-04-01T18:15:31;9.00;;;8.20;;
5871;SDS011;2962;51.312;7.378;2023-04-01T18:21:24;8.43;;;7.73;;
5871;SDS011;2962;51.312;7.378;2023-04-01T18:24:00;9.63;;;8.73;;
5871;SDS011;2962;51.312;7.378;2023-04-01T18:26:36;10.37;;;9.40;;
5871;SDS011;2962;51.312;7.378;2023-04-01T18:31:55;11.10;;;10.00;;
5871;SDS011;2962;51.312;7.378;2023-04-01T18:34:40;10.53;;;9.50;;
5871;SDS011;2962;51.312;7.378;2023-04-01T18:37:19;12.50;;;10.20;;
5871;SDS011;2962;51.312;7.378;2023-04-01T18:40:10;12.70;;;10.30;;
5871;SDS011;2962;51.312;7.378;2023-04-01T18:42:50;14.60;;;10.10;;
5871;SDS011;2962;51.312;7.378;2023-04-01T18:48:15;16.23;;;9.07;;
5871;SDS011;2962;51.312;7.378;2023-04-01T18:51:16;8.80;;;7.93;;
5871;SDS011;2962;51.312;7.378;2023-04-01T18:53:48;10.07;;;8.70;;
5871;SDS011;2962;51.312;7.378;2023-04-01T18:58:57;10.67;;;8.93;;
5871;SDS011;2962;51.312;7.378;2023-04-01T19:04:19;8.63;;;7.70;;
5871;SDS011;2962;51.312;7.378;2023-04-01T19:06:55;14.10;;;8.20;;
5871;SDS011;2962;51.312;7.378;2023-04-01T19:17:49;20.77;;;10.00;;
5871;SDS011;2962;51.312;7.378;2023-04-01T19:20:29;8.03;;;6.83;;
5871;SDS011;2962;51.312;7.378;2023-04-01T19:34:07;10.53;;;9.43;;
5871;SDS011;2962;51.312;7.378;2023-04-01T19:36:49;73.57;;;11.57;;
5871;SDS011;2962;51.312;7.378;2023-04-01T19:41:57;504.40;;;30.30;;
5871;SDS011;2962;51.312;7.378;2023-04-01T19:44:47;383.20;;;23.17;;
5871;SDS011;2962;51.312;7.378;2023-04-01T19:47:38;210.77;;;15.20;;
5871;SDS011;2962;51.312;7.378;2023-04-01T19:52:48;63.23;;;10.40;;
5871;SDS011;2962;51.312;7.378;2023-04-01T19:55:37;55.43;;;9.60;;
5871;SDS011;2962;51.312;7.378;2023-04-01T19:58:24;11.23;;;9.43;;
5871;SDS011;2962;51.312;7.378;2023-04-01T20:00:59;24.37;;;8.43;;
5871;SDS011;2962;51.312;7.378;2023-04-01T20:03:35;11.57;;;7.17;;
5871;SDS011;2962;51.312;7.378;2023-04-01T20:06:17;11.33;;;7.90;;
5871;SDS011;2962;51.312;7.378;2023-04-01T20:24:53;5.43;;;4.93;;
5871;SDS011;2962;51.312;7.378;2023-04-01T20:27:25;7.10;;;6.57;;
5871;SDS011;2962;51.312;7.378;2023-04-01T20:35:36;11.80;;;5.70;;
5871;SDS011;2962;51.312;7.378;2023-04-01T20:40:58;6.23;;;5.63;;
5871;SDS011;2962;51.312;7.378;2023-04-01T20:43:40;264.73;;;16.83;;
5871;SDS011;2962;51.312;7.378;2023-04-01T20:51:54;2.83;;;2.63;;
5871;SDS011;2962;51.312;7.378;2023-04-01T21:05:51;13.37;;;5.53;;
5871;SDS011;2962;51.312;7.378;2023-04-01T21:12:03;12.60;;;4.33;;
5871;SDS011;2962;51.312;7.378;2023-04-01T21:18:14;3.63;;;3.53;;
5871;SDS011;2962;51.312;7.378;2023-04-01T21:29:00;9.70;;;6.10;;
5871;SDS011;2962;51.312;7.378;2023-04-01T21:34:28;5.97;;;5.37;;
5871;SDS011;2962;51.312;7.378;2023-04-01T21:48:19;4.40;;;4.10;;
5871;SDS011;2962;51.312;7.378;2023-04-01T21:53:59;5.00;;;4.70;;
5871;SDS011;2962;51.312;7.378;2023-04-01T22:05:28;6.63;;;6.10;;
5871;SDS011;2962;51.312;7.378;2023-04-01T22:08:20;9.07;;;6.10;;
5871;SDS011;2962;51.312;7.378;2023-04-01T22:10:59;7.10;;;6.47;;
5871;SDS011;2962;51.312;7.378;2023-04-01T22:13:41;7.43;;;6.70;;
5871;SDS011;2962;51.312;7.378;2023-04-01T22:16:31;7.60;;;5.80;;
5871;SDS011;2962;51.312;7.378;2023-04-01T22:30:52;221.63;;;10.10;;
5871;SDS011;2962;51.312;7.378;2023-04-01T22:33:29;74.80;;;5.40;;
5871;SDS011;2962;51.312;7.378;2023-04-01T22:36:30;141.47;;;9.13;;
5871;SDS011;2962;51.312;7.378;2023-04-01T22:39:23;238.07;;;9.33;;
5871;SDS011;2962;51.312;7.378;2023-04-01T22:53:25;470.80;;;24.17;;
5871;SDS011;2962;51.312;7.378;2023-04-01T22:56:03;189.77;;;8.67;;
5871;SDS011;2962;51.312;7.378;2023-04-01T22:58:35;366.70;;;17.13;;
5871;SDS011;2962;51.312;7.378;2023-04-01T23:01:10;150.10;;;8.77;;
5871;SDS011;2962;51.312;7.378;2023-04-01T23:03:40;21.03;;;4.20;;
5871;SDS011;2962;51.312;7.378;2023-04-01T23:06:12;512.77;;;25.33;;
5871;SDS011;2962;51.312;7.378;2023-04-01T23:08:58;390.23;;;19.00;;
5871;SDS011;2962;51.312;7.378;2023-04-01T23:11:27;475.33;;;21.07;;
5871;SDS011;2962;51.312;7.378;2023-04-01T23:16:46;46.80;;;5.00;;
5871;SDS011;2962;51.312;7.378;2023-04-01T23:19:24;13.93;;;4.50;;
5871;SDS011;2962;51.312;7.378;2023-04-01T23:21:59;368.00;;;15.17;;
5871;SDS011;2962;51.312;7.378;2023-04-01T23:24:44;37.57;;;4.40;;
5871;SDS011;2962;51.312;7.378;2023-04-01T23:30:45;22.87;;;4.40;;
5871;SDS011;2962;51.312;7.378;2023-04-01T23:35:46;80.17;;;6.17;;
5871;SDS011;2962;51.312;7.378;2023-04-01T23:38:12;306.50;;;14.27;;
5871;SDS011;2962;51.312;7.378;2023-04-01T23:40:37;451.10;;;21.53;;
5871;SDS011;2962;51.312;7.378;2023-04-01T23:43:12;530.10;;;29.80;;
5871;SDS011;2962;51.312;7.378;2023-04-01T23:45:40;424.07;;;20.77;;
5871;SDS011;2962;51.312;7.378;2023-04-01T23:48:10;748.23;;;39.00;;
5871;SDS011;2962;51.312;7.378;2023-04-01T23:50:40;219.03;;;12.70;;
5871;SDS011;2962;51.312;7.378;2023-04-01T23:53:11;487.63;;;22.40;;
5871;SDS011;2962;51.312;7.378;2023-04-01T23:55:45;204.60;;;12.10;;
5871;SDS011;2962;51.312;7.378;2023-04-01T23:58:28;271.27;;;13.83;;
